QTR64P EIDW-OTHH
Flight info
| Callsign | QTR64P |
|---|---|
| Flight time | N/A |
| Altitude | 37000 |
| Route | ENDEQ3J ENDEQ Q36 ALAVA Z195 MALUD UL975 WAL M16 DOLAS DCT NAVPI DCT GISEB DCT TIVUN DCT ESAMA DCT OSBIT DCT BARSU DCT DEXIT DCT STEIN DCT BABIT DCT NISVA/N0481F390 DCT RODIP DCT BELGI UT38 VESAR DCT NIKAS R785 RASLI P559 TRF R23 NEVOL N318 TAMRO T503 KSA M321 RESAL T533 RAPMA/N0524F290 Y214 ASPUS Y432 LADBO T142 LAEEB |
| Aircraft | B789/H-SDE1E2E3FGHIJ2J3J4J5M1RWXY/LB1D1 |
Departure
| Time | 2026-05-07 10:13 |
|---|---|
| Airport | Dublin Airport (EIDW) |
Arrival
| Time | N/A |
|---|---|
| Airport | Hamad International Airport (OTHH) |
| Time | Latitude | Longitude | Altitude | Speed | Heading |
|---|---|---|---|---|---|
| 2026-05-07 09:55 | 53.42623 | -6.24715 | 216 ft | 0 kts | 90° |
| 2026-05-07 10:03 | 53.42623 | -6.24716 | 216 ft | 1 kts | 90° |
| 2026-05-07 10:04 | 53.42623 | -6.24757 | 218 ft | 3 kts | 84° |
| 2026-05-07 10:04 | 53.42618 | -6.24801 | 216 ft | 4 kts | 73° |
| 2026-05-07 10:04 | 53.42608 | -6.24842 | 222 ft | 4 kts | 50° |
| 2026-05-07 10:04 | 53.42591 | -6.24862 | 217 ft | 3 kts | 345° |
| 2026-05-07 10:05 | 53.42588 | -6.24861 | 217 ft | 0 kts | 339° |
| 2026-05-07 10:06 | 53.42606 | -6.24873 | 221 ft | 5 kts | 337° |
| 2026-05-07 10:06 | 53.42656 | -6.24916 | 220 ft | 10 kts | 329° |
| 2026-05-07 10:07 | 53.42725 | -6.24989 | 217 ft | 13 kts | 328° |
| 2026-05-07 10:07 | 53.42787 | -6.25114 | 219 ft | 15 kts | 287° |
| 2026-05-07 10:07 | 53.42837 | -6.25270 | 220 ft | 16 kts | 324° |
| 2026-05-07 10:07 | 53.42939 | -6.25346 | 218 ft | 16 kts | 337° |
| 2026-05-07 10:08 | 53.43042 | -6.25422 | 218 ft | 16 kts | 336° |
| 2026-05-07 10:08 | 53.43146 | -6.25498 | 221 ft | 17 kts | 337° |
| 2026-05-07 10:08 | 53.43255 | -6.25576 | 216 ft | 17 kts | 336° |
| 2026-05-07 10:08 | 53.43358 | -6.25643 | 218 ft | 13 kts | 355° |
| 2026-05-07 10:09 | 53.43401 | -6.25570 | 223 ft | 9 kts | 76° |
| 2026-05-07 10:09 | 53.43401 | -6.25441 | 223 ft | 13 kts | 96° |
| 2026-05-07 10:09 | 53.43391 | -6.25280 | 222 ft | 14 kts | 96° |
| 2026-05-07 10:09 | 53.43380 | -6.25110 | 216 ft | 15 kts | 96° |
| 2026-05-07 10:10 | 53.43371 | -6.24931 | 219 ft | 17 kts | 94° |
| 2026-05-07 10:10 | 53.43361 | -6.24705 | 223 ft | 22 kts | 94° |
| 2026-05-07 10:10 | 53.43348 | -6.24465 | 216 ft | 21 kts | 96° |
| 2026-05-07 10:10 | 53.43332 | -6.24234 | 216 ft | 19 kts | 96° |
| 2026-05-07 10:11 | 53.43322 | -6.24020 | 216 ft | 18 kts | 94° |
| 2026-05-07 10:11 | 53.43357 | -6.23864 | 221 ft | 13 kts | 22° |
| 2026-05-07 10:11 | 53.43446 | -6.23847 | 219 ft | 13 kts | 350° |
| 2026-05-07 10:11 | 53.43489 | -6.23945 | 221 ft | 10 kts | 277° |
| 2026-05-07 10:12 | 53.43498 | -6.24091 | 216 ft | 20 kts | 275° |
| 2026-05-07 10:12 | 53.43527 | -6.24635 | 224 ft | 77 kts | 275° |
| 2026-05-07 10:12 | 53.43595 | -6.25858 | 216 ft | 133 kts | 275° |
| 2026-05-07 10:12 | 53.43696 | -6.27710 | 225 ft | 183 kts | 276° |
| 2026-05-07 10:13 | 53.43833 | -6.29828 | 724 ft | 178 kts | 279° |
| 2026-05-07 10:13 | 53.44169 | -6.31933 | 1047 ft | 199 kts | 303° |
| 2026-05-07 10:13 | 53.45279 | -6.33295 | 1657 ft | 201 kts | 329° |
| 2026-05-07 10:13 | 53.46479 | -6.34641 | 2037 ft | 218 kts | 326° |
| 2026-05-07 10:14 | 53.47964 | -6.35150 | 2608 ft | 222 kts | 4° |
| 2026-05-07 10:14 | 53.49502 | -6.34998 | 3340 ft | 223 kts | 360° |
| 2026-05-07 10:14 | 53.51052 | -6.34678 | 3932 ft | 230 kts | 24° |
| 2026-05-07 10:14 | 53.52229 | -6.32917 | 4546 ft | 233 kts | 57° |
| 2026-05-07 10:15 | 53.52662 | -6.30223 | 4730 ft | 252 kts | 92° |
| 2026-05-07 10:15 | 53.52587 | -6.27196 | 5097 ft | 268 kts | 95° |
| 2026-05-07 10:15 | 53.52495 | -6.24055 | 5823 ft | 269 kts | 94° |
| 2026-05-07 10:15 | 53.52444 | -6.20872 | 6471 ft | 276 kts | 93° |
| 2026-05-07 10:16 | 53.52404 | -6.17645 | 7272 ft | 278 kts | 93° |
| 2026-05-07 10:16 | 53.52352 | -6.14370 | 8011 ft | 282 kts | 94° |
| 2026-05-07 10:16 | 53.52293 | -6.11044 | 8752 ft | 288 kts | 94° |
| 2026-05-07 10:16 | 53.52216 | -6.07604 | 8967 ft | 300 kts | 98° |
| 2026-05-07 10:17 | 53.51689 | -6.04288 | 9511 ft | 287 kts | 110° |
| 2026-05-07 10:17 | 53.51235 | -6.00992 | 10185 ft | 296 kts | 103° |
| 2026-05-07 10:17 | 53.50821 | -5.97440 | 10262 ft | 323 kts | 104° |
| 2026-05-07 10:17 | 53.50288 | -5.93661 | 10338 ft | 349 kts | 106° |